Albuquerque, New Mexico
Current Conditions -  °F | °C
As of 7:52 AM on Monday 24 Nov 2014 (Local Time) from KABQ Reporting Station
Few Clouds Few Clouds  
Wind Chill: 25°   Ceiling: Unl
Heat Index: 31°   Visibility: 10mi
Dew Point:   Wind: 6mph
Humidity: 38%   Direction: 350°N
Pressure: 30.17"   Gusts: NA
Location:  35.08°N, 106.64°W
Report Text: KABQ 241452Z 35005KT 10SM FEW100 M01/M13 A3017 RMK AO2 SLP220 T10061133 51013
Loading
Personal Weather Stations






























Interactive Weather Map New forecast layout! Learn more

10-Day Weather Forecast

Advertisements
Track Severe Weather on mobile